Time;durP1;ratioP1;P1;durP2;ratioP2;P2;SDS_P1;SDS_P2;PMS_P1;PMS_P2;Temp;Humidity;BMP_temperature;BMP_pressure;BME280_temperature;BME280_humidity;BME280_pressure;Samples;Min_cycle;Max_cycle;Signal;HPM_P1;HPM_P2
2022/01/06 00:00:37;;;;;;;15.40;6.07;;;3.50;99.90;;;;;;5083892;28;21044;-75
2022/01/06 00:03:04;;;;;;;8.47;4.90;;;3.50;99.90;;;;;;5091728;28;20539;-76
2022/01/06 00:05:32;;;;;;;10.03;4.33;;;3.50;99.90;;;;;;5075295;28;21029;-75
2022/01/06 00:08:00;;;;;;;12.40;5.80;;;3.60;99.90;;;;;;5074004;28;20479;-75
2022/01/06 00:10:29;;;;;;;10.27;4.70;;;3.60;99.90;;;;;;5076985;28;20462;-75
2022/01/06 00:13:07;;;;;;;14.70;4.90;;;3.60;99.90;;;;;;5074098;28;20508;-76
2022/01/06 00:15:40;;;;;;;8.33;5.27;;;3.60;99.90;;;;;;5084283;28;20504;-75
2022/01/06 00:18:20;;;;;;;13.90;5.90;;;3.60;99.90;;;;;;5090708;28;20450;-75
2022/01/06 00:23:33;;;;;;;7.17;5.27;;;3.60;99.90;;;;;;5093255;28;20445;-76
2022/01/06 00:26:02;;;;;;;10.00;5.47;;;3.60;99.90;;;;;;5075128;28;20551;-75
2022/01/06 00:28:30;;;;;;;21.37;5.70;;;3.70;99.90;;;;;;5092606;28;20539;-75
2022/01/06 00:30:56;;;;;;;10.30;5.50;;;3.70;99.90;;;;;;5096122;28;20897;-75
2022/01/06 00:33:24;;;;;;;9.73;5.80;;;3.70;99.90;;;;;;5092045;28;20460;-75
2022/01/06 00:35:52;;;;;;;7.23;5.10;;;3.70;99.90;;;;;;5091255;28;20451;-76
2022/01/06 00:38:19;;;;;;;7.53;4.93;;;3.70;99.90;;;;;;5076841;28;20448;-76
2022/01/06 00:40:46;;;;;;;10.67;4.93;;;3.70;99.90;;;;;;5076311;28;20455;-75
2022/01/06 00:43:13;;;;;;;9.10;5.07;;;3.70;99.90;;;;;;5092512;28;20454;-75
2022/01/06 00:45:40;;;;;;;10.90;5.30;;;3.70;99.90;;;;;;5080549;28;20980;-75
2022/01/06 00:48:09;;;;;;;8.83;4.97;;;3.70;99.90;;;;;;5075815;28;20595;-76
2022/01/06 00:50:37;;;;;;;5.30;4.77;;;3.70;99.90;;;;;;5076378;28;20542;-76
2022/01/06 00:53:05;;;;;;;10.70;4.87;;;3.70;99.90;;;;;;5084145;28;20508;-76
2022/01/06 00:55:33;;;;;;;5.60;3.63;;;3.60;99.90;;;;;;5081787;28;20529;-75
2022/01/06 00:58:00;;;;;;;7.03;3.30;;;3.60;99.90;;;;;;5081056;28;20439;-76
2022/01/06 01:00:31;;;;;;;14.10;4.40;;;3.60;99.90;;;;;;5082915;28;20453;-75
2022/01/06 01:02:58;;;;;;;5.90;3.90;;;3.50;99.90;;;;;;5078011;28;20892;-76
2022/01/06 01:05:24;;;;;;;9.67;4.73;;;3.50;99.90;;;;;;5086618;28;20512;-76
2022/01/06 01:07:51;;;;;;;8.57;4.30;;;3.40;99.90;;;;;;5088780;28;20898;-75
2022/01/06 01:10:19;;;;;;;9.27;4.50;;;3.40;99.90;;;;;;5083587;28;20954;-76
2022/01/06 01:12:48;;;;;;;10.50;4.70;;;3.30;99.90;;;;;;5075547;28;20458;-76
2022/01/06 01:15:19;;;;;;;23.23;5.80;;;3.30;99.90;;;;;;5077378;28;20482;-76
2022/01/06 01:17:48;;;;;;;13.47;4.73;;;3.30;99.90;;;;;;5074904;28;20977;-76
2022/01/06 01:20:15;;;;;;;10.30;4.90;;;3.20;99.90;;;;;;5079693;28;20455;-76
2022/01/06 01:22:42;;;;;;;12.23;5.40;;;3.20;99.90;;;;;;5094898;28;20533;-76
2022/01/06 01:25:09;;;;;;;23.93;5.93;;;3.20;99.90;;;;;;5090696;28;21042;-76
2022/01/06 01:27:40;;;;;;;12.67;5.27;;;3.20;99.90;;;;;;5083067;28;20533;-76
2022/01/06 01:30:13;;;;;;;20.50;5.60;;;3.20;99.90;;;;;;5074735;28;20502;-76
2022/01/06 01:32:45;;;;;;;16.87;5.67;;;3.20;99.90;;;;;;5074789;28;20493;-76
2022/01/06 01:35:12;;;;;;;16.70;6.10;;;3.10;99.90;;;;;;5083947;28;20470;-76
2022/01/06 01:37:39;;;;;;;13.33;5.17;;;3.10;99.90;;;;;;5077968;28;20447;-76
2022/01/06 01:40:09;;;;;;;17.73;5.20;;;3.10;99.90;;;;;;5089154;28;20512;-76
2022/01/06 01:42:37;;;;;;;8.67;4.20;;;3.00;99.90;;;;;;5074037;28;20459;-76
2022/01/06 01:45:06;;;;;;;15.47;6.20;;;3.00;99.90;;;;;;5083711;28;20495;-75
2022/01/06 01:47:39;;;;;;;18.63;5.93;;;3.00;99.90;;;;;;5081259;28;20475;-76
2022/01/06 01:50:12;;;;;;;10.67;5.50;;;3.00;99.90;;;;;;5089984;28;20830;-76
2022/01/06 01:52:42;;;;;;;14.27;5.63;;;3.00;99.90;;;;;;5090780;28;20459;-76
2022/01/06 01:55:10;;;;;;;20.90;5.73;;;3.00;99.90;;;;;;5082950;28;20550;-76
2022/01/06 01:57:38;;;;;;;16.20;5.30;;;3.00;99.90;;;;;;5085138;28;20450;-75
2022/01/06 02:00:06;;;;;;;20.77;5.47;;;3.00;99.90;;;;;;5075841;28;20460;-76
2022/01/06 02:02:33;;;;;;;22.93;5.90;;;3.00;99.90;;;;;;5074553;28;20444;-75
2022/01/06 02:05:00;;;;;;;10.27;5.70;;;3.00;99.90;;;;;;5105802;22;20551;-71
2022/01/06 02:07:27;;;;;;;17.80;4.70;;;3.00;99.90;;;;;;5099076;28;21014;-70
2022/01/06 02:09:54;;;;;;;22.17;6.20;;;3.00;99.90;;;;;;5097859;28;20545;-71
2022/01/06 02:12:25;;;;;;;28.30;8.60;;;3.00;99.90;;;;;;5093231;28;20493;-71
2022/01/06 02:14:53;;;;;;;13.67;5.33;;;3.10;99.90;;;;;;5084554;28;20470;-71
2022/01/06 02:17:20;;;;;;;15.13;5.60;;;3.10;99.90;;;;;;5087114;28;20480;-71
2022/01/06 02:19:55;;;;;;;18.03;5.47;;;3.10;99.90;;;;;;5076214;28;20454;-71
2022/01/06 02:22:22;;;;;;;15.03;5.07;;;3.10;99.90;;;;;;5090185;28;20537;-71
2022/01/06 02:24:49;;;;;;;19.53;5.77;;;3.10;99.90;;;;;;5074619;28;20476;-71
2022/01/06 02:27:15;;;;;;;12.30;4.87;;;3.10;99.90;;;;;;5072107;28;20480;-70
2022/01/06 02:29:43;;;;;;;11.30;4.93;;;3.20;99.90;;;;;;5075201;28;20508;-71
2022/01/06 02:32:14;;;;;;;15.30;4.50;;;3.20;99.90;;;;;;5077967;28;20448;-71
2022/01/06 02:34:41;;;;;;;10.80;4.50;;;3.10;99.90;;;;;;5078587;28;20540;-70
2022/01/06 02:37:09;;;;;;;13.60;4.20;;;3.10;99.90;;;;;;5071733;28;20509;-71
2022/01/06 02:39:36;;;;;;;16.73;5.33;;;3.10;99.90;;;;;;5084334;28;20880;-71
2022/01/06 02:42:04;;;;;;;12.63;4.23;;;3.10;99.90;;;;;;5086289;28;20443;-71
2022/01/06 02:44:30;;;;;;;14.60;4.13;;;3.10;99.90;;;;;;5073379;28;20581;-71
2022/01/06 02:46:57;;;;;;;20.53;4.20;;;3.10;99.90;;;;;;5089419;28;20804;-71
2022/01/06 02:49:24;;;;;;;10.93;4.13;;;3.10;99.90;;;;;;5080900;28;20456;-71
2022/01/06 02:51:51;;;;;;;12.40;5.20;;;3.00;99.90;;;;;;5073352;28;20509;-72
2022/01/06 02:54:21;;;;;;;18.63;4.00;;;3.00;99.90;;;;;;5070358;28;20494;-71
2022/01/06 02:56:48;;;;;;;15.07;4.40;;;3.00;99.90;;;;;;5084328;28;20509;-71
2022/01/06 02:59:15;;;;;;;17.37;5.57;;;3.00;99.90;;;;;;5086865;28;20824;-71
2022/01/06 03:01:43;;;;;;;11.20;4.43;;;2.90;99.90;;;;;;5091063;28;20523;-71
2022/01/06 03:04:11;;;;;;;12.67;4.07;;;2.90;99.90;;;;;;5075915;28;20546;-71
2022/01/06 03:06:38;;;;;;;8.50;4.23;;;2.90;99.90;;;;;;5078278;28;20888;-72
2022/01/06 03:09:06;;;;;;;11.20;4.23;;;2.90;99.90;;;;;;5070971;28;20479;-71
2022/01/06 03:11:40;;;;;;;15.33;4.37;;;2.90;99.90;;;;;;5072075;28;20448;-71
2022/01/06 03:14:07;;;;;;;16.43;4.20;;;3.00;99.90;;;;;;5074010;28;20467;-71
2022/01/06 03:16:34;;;;;;;10.37;3.40;;;3.00;99.90;;;;;;5084878;28;20512;-71
2022/01/06 03:19:00;;;;;;;17.93;3.90;;;3.00;99.90;;;;;;5089656;28;20436;-71
2022/01/06 03:21:27;;;;;;;11.50;3.70;;;3.00;99.90;;;;;;5075707;28;20481;-71
2022/01/06 03:23:54;;;;;;;9.43;4.10;;;3.00;99.90;;;;;;5078132;28;20460;-71
2022/01/06 03:26:20;;;;;;;11.20;4.50;;;3.00;99.90;;;;;;5082486;28;20499;-71
2022/01/06 03:28:48;;;;;;;9.80;3.93;;;2.90;99.90;;;;;;5085276;28;20583;-71
2022/01/06 03:31:15;;;;;;;12.50;4.17;;;2.90;99.90;;;;;;5070500;28;20866;-71
2022/01/06 03:33:41;;;;;;;10.60;4.37;;;2.90;99.90;;;;;;5074003;28;20916;-71
2022/01/06 03:36:08;;;;;;;12.77;4.10;;;2.90;99.90;;;;;;5069986;28;20447;-72
2022/01/06 03:38:35;;;;;;;10.63;4.37;;;2.90;99.90;;;;;;5079092;28;20448;-72
2022/01/06 03:41:01;;;;;;;9.93;4.10;;;2.80;99.90;;;;;;5078723;28;20443;-71
2022/01/06 03:43:28;;;;;;;10.13;4.00;;;2.80;99.90;;;;;;5075993;28;20539;-71
2022/01/06 03:45:56;;;;;;;12.67;3.70;;;2.80;99.90;;;;;;5070826;28;20471;-71
2022/01/06 03:48:23;;;;;;;18.17;4.50;;;2.80;99.90;;;;;;5082307;28;20487;-71
2022/01/06 03:50:49;;;;;;;11.13;3.80;;;2.80;99.90;;;;;;5076618;28;20691;-71
2022/01/06 03:53:16;;;;;;;15.20;3.97;;;2.80;99.90;;;;;;5079905;28;20517;-71
2022/01/06 03:55:43;;;;;;;14.33;4.33;;;2.80;99.90;;;;;;5078636;28;20551;-71
2022/01/06 03:58:11;;;;;;;9.43;4.13;;;2.80;99.90;;;;;;5075073;28;20792;-71
2022/01/06 04:00:38;;;;;;;14.30;4.00;;;2.80;99.90;;;;;;5072716;28;20467;-71
2022/01/06 04:03:06;;;;;;;10.03;3.30;;;2.80;99.90;;;;;;5076815;28;20464;-71
2022/01/06 04:05:33;;;;;;;14.07;4.33;;;2.80;99.90;;;;;;5068309;28;20780;-71
2022/01/06 04:08:00;;;;;;;12.97;4.73;;;2.80;99.90;;;;;;5078075;28;20516;-71
2022/01/06 04:10:27;;;;;;;15.10;4.20;;;2.80;99.90;;;;;;5079971;28;20521;-71
2022/01/06 04:12:54;;;;;;;21.70;4.37;;;2.80;99.90;;;;;;5090620;28;20450;-72
2022/01/06 04:15:23;;;;;;;15.03;4.13;;;2.80;99.90;;;;;;5083902;28;20553;-72
2022/01/06 04:17:50;;;;;;;11.93;4.50;;;2.80;99.90;;;;;;5078981;28;20454;-71
2022/01/06 04:20:18;;;;;;;9.47;5.07;;;2.80;99.90;;;;;;5072348;28;20458;-71
2022/01/06 04:22:45;;;;;;;11.63;4.50;;;2.80;99.90;;;;;;5083520;28;21008;-72
2022/01/06 04:25:13;;;;;;;12.27;3.97;;;2.80;99.90;;;;;;5078509;28;20475;-72
2022/01/06 04:27:40;;;;;;;13.07;4.37;;;2.80;99.90;;;;;;5073329;28;20459;-71
2022/01/06 04:30:09;;;;;;;20.43;4.97;;;2.80;99.90;;;;;;5084458;28;20461;-71
2022/01/06 04:32:36;;;;;;;16.27;4.93;;;2.80;99.90;;;;;;5084238;28;20442;-71
2022/01/06 04:35:04;;;;;;;13.93;5.80;;;2.80;99.90;;;;;;5073851;28;20467;-71
2022/01/06 04:37:32;;;;;;;18.33;5.60;;;2.80;99.90;;;;;;5089330;28;20458;-71
2022/01/06 04:39:59;;;;;;;18.97;5.60;;;2.90;99.90;;;;;;5090103;28;20454;-72
2022/01/06 04:42:27;;;;;;;10.50;4.40;;;2.90;99.90;;;;;;5075933;28;20448;-72
2022/01/06 04:44:54;;;;;;;19.03;5.97;;;2.90;99.90;;;;;;5073569;28;21066;-71
2022/01/06 04:47:20;;;;;;;15.10;4.50;;;2.90;99.90;;;;;;5085509;28;20451;-71
2022/01/06 04:49:47;;;;;;;22.27;6.70;;;3.00;99.90;;;;;;5070208;28;20532;-71
2022/01/06 04:52:14;;;;;;;20.97;5.73;;;3.00;99.90;;;;;;5072989;28;20871;-72
2022/01/06 04:54:42;;;;;;;24.17;6.20;;;3.00;99.90;;;;;;5079042;28;20452;-71
2022/01/06 04:57:09;;;;;;;24.50;5.93;;;3.00;99.90;;;;;;5071459;28;20475;-72
2022/01/06 04:59:36;;;;;;;21.87;5.63;;;3.00;99.90;;;;;;5078468;28;20448;-72
2022/01/06 05:02:03;;;;;;;14.87;6.20;;;3.00;99.90;;;;;;5084857;28;20447;-72
2022/01/06 05:04:30;;;;;;;19.30;5.90;;;2.90;99.90;;;;;;5074566;28;20895;-71
2022/01/06 05:06:56;;;;;;;13.53;5.30;;;2.90;99.90;;;;;;5075549;28;20447;-72
2022/01/06 05:09:23;;;;;;;18.83;5.83;;;2.90;99.90;;;;;;5088138;28;20486;-72
2022/01/06 05:11:51;;;;;;;19.87;7.20;;;2.90;99.90;;;;;;5079616;28;20465;-72
2022/01/06 05:14:18;;;;;;;24.63;6.90;;;2.80;99.90;;;;;;5077406;28;20471;-71
2022/01/06 05:16:44;;;;;;;27.27;6.30;;;2.80;99.90;;;;;;5077841;28;20455;-71
2022/01/06 05:19:11;;;;;;;18.33;6.10;;;2.80;99.90;;;;;;5076469;28;20452;-71
2022/01/06 05:21:38;;;;;;;25.57;6.63;;;2.80;99.90;;;;;;5077362;28;20462;-71
2022/01/06 05:24:11;;;;;;;17.13;6.03;;;2.70;99.90;;;;;;5073501;28;20475;-71
2022/01/06 05:26:38;;;;;;;17.30;6.07;;;2.70;99.90;;;;;;5085966;28;20459;-71
2022/01/06 05:29:07;;;;;;;16.00;6.20;;;2.70;99.90;;;;;;5086407;28;20573;-71
2022/01/06 05:31:34;;;;;;;16.53;5.83;;;2.70;99.90;;;;;;5089348;28;20450;-71
2022/01/06 05:34:00;;;;;;;20.27;7.03;;;2.60;99.90;;;;;;5076206;28;20499;-71
2022/01/06 05:36:27;;;;;;;20.73;7.13;;;2.60;99.90;;;;;;5091794;28;20863;-71
2022/01/06 05:38:54;;;;;;;13.17;6.60;;;2.60;99.90;;;;;;5093176;28;20443;-71
2022/01/06 05:41:21;;;;;;;14.60;6.47;;;2.60;99.90;;;;;;5082485;28;21079;-71
2022/01/06 05:43:48;;;;;;;29.53;7.70;;;2.60;99.90;;;;;;5077636;28;20459;-71
2022/01/06 05:46:16;;;;;;;15.20;6.20;;;2.60;99.90;;;;;;5084183;28;20966;-71
2022/01/06 05:48:43;;;;;;;20.30;7.07;;;2.60;99.90;;;;;;5086889;28;20535;-71
2022/01/06 05:51:10;;;;;;;25.70;6.67;;;2.70;99.90;;;;;;5077176;28;20444;-71
2022/01/06 05:53:37;;;;;;;23.17;7.23;;;2.70;99.90;;;;;;5085882;28;20459;-71
2022/01/06 05:56:03;;;;;;;20.40;6.50;;;2.70;99.90;;;;;;5082049;28;20572;-72
2022/01/06 05:58:30;;;;;;;16.93;7.03;;;2.70;99.90;;;;;;5074478;28;20959;-72
2022/01/06 06:00:57;;;;;;;20.37;9.17;;;2.70;99.90;;;;;;5076607;28;20457;-72
2022/01/06 06:03:27;;;;;;;17.13;7.60;;;2.70;99.90;;;;;;5079914;28;20451;-72
2022/01/06 06:05:53;;;;;;;18.53;7.60;;;2.70;99.90;;;;;;5080290;28;20517;-71
2022/01/06 06:08:20;;;;;;;16.27;8.30;;;2.70;99.90;;;;;;5085459;28;20555;-71
2022/01/06 06:10:47;;;;;;;18.47;7.60;;;2.70;99.90;;;;;;5083509;28;20448;-71
2022/01/06 06:13:14;;;;;;;22.93;7.50;;;2.60;99.90;;;;;;5083415;28;20450;-71
2022/01/06 06:15:40;;;;;;;14.67;7.37;;;2.60;99.90;;;;;;5084232;28;20478;-71
2022/01/06 06:18:09;;;;;;;16.33;7.43;;;2.60;99.90;;;;;;5078619;28;20981;-72
2022/01/06 06:20:37;;;;;;;19.63;7.87;;;2.50;99.90;;;;;;5085157;28;20562;-71
2022/01/06 06:23:04;;;;;;;20.60;6.70;;;2.50;99.90;;;;;;5077509;28;20444;-72
2022/01/06 06:25:31;;;;;;;21.67;7.60;;;2.50;99.90;;;;;;5078586;28;20723;-72
2022/01/06 06:27:58;;;;;;;14.33;6.43;;;2.40;99.90;;;;;;5085068;28;20455;-72
2022/01/06 06:30:25;;;;;;;21.40;6.53;;;2.40;99.90;;;;;;5092179;28;21005;-71
2022/01/06 06:32:51;;;;;;;18.57;6.23;;;2.40;99.90;;;;;;5083025;28;20451;-71
2022/01/06 06:35:18;;;;;;;12.83;5.83;;;2.40;99.90;;;;;;5083113;28;20466;-71
2022/01/06 06:37:46;;;;;;;15.13;6.00;;;2.40;99.90;;;;;;5077931;28;20532;-72
2022/01/06 06:40:13;;;;;;;15.80;5.70;;;2.40;99.90;;;;;;5075738;28;20447;-71
2022/01/06 06:42:40;;;;;;;21.90;7.03;;;2.40;99.90;;;;;;5079561;28;20458;-71
2022/01/06 06:45:08;;;;;;;14.83;6.63;;;2.40;99.90;;;;;;5067790;28;20467;-71
2022/01/06 06:47:35;;;;;;;14.60;5.60;;;2.40;99.90;;;;;;5086908;28;20457;-71
2022/01/06 06:50:01;;;;;;;19.33;6.57;;;2.50;99.90;;;;;;5089066;28;20478;-71
2022/01/06 06:52:28;;;;;;;17.67;6.17;;;2.40;99.90;;;;;;5088980;28;20457;-72
2022/01/06 06:54:56;;;;;;;18.03;6.10;;;2.30;99.90;;;;;;5088602;28;20791;-72
2022/01/06 06:57:22;;;;;;;20.47;7.07;;;2.30;99.90;;;;;;5080583;28;21163;-71
2022/01/06 06:59:49;;;;;;;18.13;6.50;;;2.20;99.90;;;;;;5069386;28;20489;-72
2022/01/06 07:02:16;;;;;;;19.07;6.87;;;2.20;99.90;;;;;;5071182;28;20451;-72
2022/01/06 07:04:42;;;;;;;21.07;6.97;;;2.20;99.90;;;;;;5071707;28;20479;-72
2022/01/06 07:07:09;;;;;;;20.87;6.03;;;2.20;99.90;;;;;;5072202;28;20444;-72
2022/01/06 07:09:36;;;;;;;15.30;6.93;;;2.20;99.90;;;;;;5071432;28;20475;-72
2022/01/06 07:12:05;;;;;;;19.63;6.17;;;2.20;99.90;;;;;;5071941;28;20483;-71
2022/01/06 07:14:31;;;;;;;17.70;6.67;;;2.20;99.90;;;;;;5071929;28;20592;-72
2022/01/06 07:16:58;;;;;;;22.80;6.07;;;2.10;99.90;;;;;;5071289;28;20448;-71
2022/01/06 07:19:25;;;;;;;13.90;5.50;;;2.10;99.90;;;;;;5071393;28;20505;-71
2022/01/06 07:21:51;;;;;;;14.90;5.57;;;2.20;99.90;;;;;;5071562;28;20774;-71
2022/01/06 07:24:18;;;;;;;14.47;6.03;;;2.20;99.90;;;;;;5070951;28;20512;-71
2022/01/06 07:26:45;;;;;;;16.60;6.10;;;2.20;99.90;;;;;;5070836;28;20444;-71
2022/01/06 07:29:13;;;;;;;14.20;6.23;;;2.20;99.90;;;;;;5070782;28;20814;-71
2022/01/06 07:31:39;;;;;;;17.50;6.00;;;2.20;99.90;;;;;;5071677;28;20614;-71
2022/01/06 07:34:06;;;;;;;11.43;6.27;;;2.10;99.90;;;;;;5071004;28;20475;-71
2022/01/06 07:36:33;;;;;;;14.90;6.50;;;2.10;99.90;;;;;;5071146;28;20451;-71
2022/01/06 07:38:59;;;;;;;21.23;6.17;;;2.10;99.90;;;;;;5070323;28;20489;-71
2022/01/06 07:41:26;;;;;;;20.70;6.33;;;2.20;99.90;;;;;;5070975;28;20459;-71
2022/01/06 07:43:53;;;;;;;16.03;6.60;;;2.10;99.90;;;;;;5070464;28;20452;-71
2022/01/06 07:46:21;;;;;;;17.20;5.97;;;2.10;99.90;;;;;;5070697;28;20444;-71
2022/01/06 07:48:56;;;;;;;18.43;6.40;;;2.20;99.90;;;;;;5070743;28;20455;-71
2022/01/06 07:51:24;;;;;;;18.40;6.30;;;2.20;99.90;;;;;;5070899;28;20458;-70
2022/01/06 07:53:51;;;;;;;15.00;6.83;;;2.20;99.90;;;;;;5070549;28;20451;-71
2022/01/06 07:56:18;;;;;;;25.10;6.70;;;2.20;99.90;;;;;;5070172;28;20509;-70
2022/01/06 07:58:46;;;;;;;18.80;6.97;;;2.20;99.90;;;;;;5050543;28;20455;-71
2022/01/06 08:01:14;;;;;;;17.80;5.63;;;2.30;99.90;;;;;;5050166;28;20456;-71
2022/01/06 08:03:43;;;;;;;17.70;6.60;;;2.30;99.90;;;;;;5050129;28;20929;-71
2022/01/06 08:06:10;;;;;;;23.47;7.60;;;2.30;99.90;;;;;;5109083;22;20551;-78
2022/01/06 08:08:37;;;;;;;13.47;6.27;;;2.30;99.90;;;;;;5092072;28;20446;-78
2022/01/06 08:11:04;;;;;;;20.90;6.67;;;2.30;99.90;;;;;;5091195;28;20900;-78
2022/01/06 08:13:31;;;;;;;16.70;6.90;;;2.30;99.90;;;;;;5090651;28;20450;-77
2022/01/06 08:15:58;;;;;;;16.63;7.10;;;2.40;99.90;;;;;;5073859;28;20468;-78
2022/01/06 08:18:24;;;;;;;12.57;6.87;;;2.40;99.90;;;;;;5070114;28;20455;-78
2022/01/06 08:20:52;;;;;;;12.50;6.30;;;2.40;99.90;;;;;;5070059;28;20815;-77
2022/01/06 08:23:19;;;;;;;19.30;7.20;;;2.50;99.90;;;;;;5070693;28;20452;-78
2022/01/06 08:25:46;;;;;;;16.33;6.07;;;2.50;99.90;;;;;;5070168;28;20528;-78
2022/01/06 08:28:12;;;;;;;16.23;6.10;;;2.60;99.90;;;;;;5070371;28;20453;-78
2022/01/06 08:30:39;;;;;;;15.73;6.60;;;2.90;99.90;;;;;;5070365;28;20905;-77
2022/01/06 08:33:06;;;;;;;15.83;6.97;;;3.80;99.90;;;;;;5070740;28;20505;-78
2022/01/06 08:35:33;;;;;;;18.40;6.40;;;4.60;99.90;;;;;;5069849;28;20479;-77
2022/01/06 08:38:01;;;;;;;13.93;5.23;;;5.30;99.90;;;;;;5070594;28;20452;-76
2022/01/06 08:40:27;;;;;;;20.43;6.10;;;5.70;99.90;;;;;;5070299;28;20513;-77
2022/01/06 08:42:54;;;;;;;15.57;5.43;;;5.80;99.90;;;;;;5069978;28;20557;-76
2022/01/06 08:45:21;;;;;;;17.20;6.17;;;5.80;99.90;;;;;;5069639;28;20897;-77
2022/01/06 08:47:48;;;;;;;12.90;6.00;;;5.80;99.90;;;;;;5070184;28;20447;-77
2022/01/06 08:50:15;;;;;;;11.67;6.47;;;5.70;99.90;;;;;;5072908;28;20475;-76
2022/01/06 08:52:42;;;;;;;18.57;6.40;;;5.60;99.90;;;;;;5073863;28;20800;-77
2022/01/06 08:55:11;;;;;;;18.03;6.10;;;5.50;99.90;;;;;;5073110;28;20536;-76
2022/01/06 08:57:38;;;;;;;12.73;5.70;;;5.60;99.90;;;;;;5073657;28;20454;-78
2022/01/06 09:00:07;;;;;;;15.47;6.10;;;5.70;99.90;;;;;;5073796;28;20505;-76
2022/01/06 09:02:34;;;;;;;11.60;5.97;;;5.80;99.90;;;;;;5073514;28;20451;-77
2022/01/06 09:05:02;;;;;;;22.70;5.93;;;5.90;99.90;;;;;;5073165;28;20532;-77
2022/01/06 09:07:29;;;;;;;12.50;5.67;;;6.00;99.90;;;;;;5073652;28;20536;-77
2022/01/06 09:09:56;;;;;;;17.73;6.50;;;6.10;99.90;;;;;;5073374;28;20483;-77
2022/01/06 09:12:24;;;;;;;11.63;5.63;;;6.30;99.90;;;;;;5073544;28;20569;-77
2022/01/06 09:14:50;;;;;;;12.00;5.50;;;6.40;99.90;;;;;;5073101;28;20540;-77
2022/01/06 09:17:17;;;;;;;18.40;6.60;;;6.60;99.90;;;;;;5073059;28;20482;-78
2022/01/06 09:19:44;;;;;;;16.30;6.03;;;6.60;99.90;;;;;;5073229;28;20501;-77
2022/01/06 09:22:11;;;;;;;15.07;6.40;;;6.80;99.90;;;;;;5073201;28;20504;-77
2022/01/06 09:24:38;;;;;;;14.13;6.73;;;6.80;99.90;;;;;;5073026;28;20467;-78
2022/01/06 09:27:05;;;;;;;15.00;6.87;;;6.70;99.90;;;;;;5072710;28;20455;-77
2022/01/06 09:29:33;;;;;;;28.57;7.43;;;6.70;99.90;;;;;;5073406;28;20479;-77
2022/01/06 09:31:59;;;;;;;22.80;8.60;;;6.60;99.90;;;;;;5072902;28;20443;-77
2022/01/06 09:34:26;;;;;;;23.53;7.70;;;6.50;99.90;;;;;;5072868;28;20471;-76
2022/01/06 09:36:53;;;;;;;29.67;8.03;;;6.50;99.90;;;;;;5072887;28;20501;-77
2022/01/06 09:39:21;;;;;;;20.40;6.83;;;6.60;99.90;;;;;;5072952;28;20452;-76
2022/01/06 09:41:48;;;;;;;19.67;8.30;;;6.60;99.90;;;;;;5072733;28;20563;-77
2022/01/06 09:44:15;;;;;;;20.93;6.40;;;6.60;99.90;;;;;;5072991;28;20554;-77
2022/01/06 09:46:44;;;;;;;18.20;6.17;;;6.80;99.90;;;;;;5072648;28;21001;-77
2022/01/06 09:49:11;;;;;;;16.20;5.67;;;7.00;99.90;;;;;;5072692;28;20851;-77
2022/01/06 09:51:38;;;;;;;17.43;5.30;;;7.10;99.90;;;;;;5072945;28;20444;-77
2022/01/06 09:54:05;;;;;;;9.93;5.20;;;7.30;99.90;;;;;;5072647;28;20452;-77
2022/01/06 09:56:31;;;;;;;18.20;5.63;;;7.60;99.90;;;;;;5071906;28;20451;-76
2022/01/06 09:58:58;;;;;;;22.93;5.57;;;7.70;99.90;;;;;;5072976;28;20459;-77
2022/01/06 10:01:25;;;;;;;12.77;5.30;;;7.90;99.90;;;;;;5072284;28;20448;-77
2022/01/06 10:03:53;;;;;;;24.97;6.23;;;7.80;99.90;;;;;;5072356;28;20870;-76
2022/01/06 10:06:22;;;;;;;11.93;4.77;;;7.90;99.90;;;;;;5072278;28;20487;-77
2022/01/06 10:08:54;;;;;;;20.93;6.10;;;7.70;99.90;;;;;;5072566;28;20454;-77
2022/01/06 10:11:24;;;;;;;19.20;5.43;;;7.60;99.90;;;;;;5072506;28;20858;-77
2022/01/06 10:13:58;;;;;;;22.90;6.17;;;7.70;99.90;;;;;;5072350;28;20455;-77
2022/01/06 10:16:25;;;;;;;15.00;4.87;;;7.80;99.90;;;;;;5072332;28;20546;-76
2022/01/06 10:18:59;;;;;;;15.37;5.50;;;7.90;99.90;;;;;;5072521;28;20493;-78
2022/01/06 10:21:29;;;;;;;10.63;4.53;;;8.10;99.90;;;;;;5072322;28;20812;-77
2022/01/06 10:24:08;;;;;;;16.83;6.80;;;8.30;99.90;;;;;;5072658;28;20448;-77
2022/01/06 10:26:36;;;;;;;12.50;4.73;;;8.60;99.90;;;;;;5072035;28;20455;-77
2022/01/06 10:29:07;;;;;;;10.00;5.33;;;8.80;99.90;;;;;;5071973;28;20456;-77
2022/01/06 10:31:33;;;;;;;17.60;5.30;;;9.10;99.90;;;;;;5072091;28;20621;-77
2022/01/06 10:34:07;;;;;;;24.20;5.77;;;9.30;99.90;;;;;;5072074;28;20444;-77
2022/01/06 10:36:35;;;;;;;20.03;5.67;;;9.30;99.90;;;;;;5071935;28;20460;-77
2022/01/06 10:39:05;;;;;;;13.40;6.90;;;9.30;99.90;;;;;;5072842;28;20452;-77
2022/01/06 10:41:33;;;;;;;15.47;5.20;;;9.40;99.90;;;;;;5071908;28;20471;-77
2022/01/06 10:44:01;;;;;;;15.40;5.10;;;9.50;99.90;;;;;;5071621;28;20794;-77
2022/01/06 10:46:33;;;;;;;13.50;5.50;;;9.60;99.90;;;;;;5071482;28;20447;-77
2022/01/06 10:49:07;;;;;;;13.23;5.07;;;9.50;99.90;;;;;;5072253;28;20451;-78
2022/01/06 10:51:37;;;;;;;12.67;5.27;;;9.70;99.90;;;;;;5071660;28;20851;-78
2022/01/06 10:54:05;;;;;;;15.70;5.03;;;9.60;99.90;;;;;;5071671;28;20792;-78
2022/01/06 10:56:32;;;;;;;13.10;5.27;;;9.50;99.90;;;;;;5070599;28;20455;-77
2022/01/06 10:58:59;;;;;;;17.10;5.50;;;9.60;99.90;;;;;;5071854;28;20477;-77
2022/01/06 11:01:26;;;;;;;19.03;4.73;;;9.70;99.90;;;;;;5071031;28;20825;-78
2022/01/06 11:03:53;;;;;;;16.10;5.57;;;9.70;99.90;;;;;;5071618;28;20539;-77
2022/01/06 11:06:21;;;;;;;11.43;4.43;;;9.50;99.90;;;;;;5070838;28;20471;-78
2022/01/06 11:08:50;;;;;;;14.37;4.87;;;9.20;99.90;;;;;;5071283;28;20538;-77
2022/01/06 11:11:30;;;;;;;13.47;4.77;;;9.00;99.90;;;;;;5071320;28;20557;-76
2022/01/06 11:13:57;;;;;;;13.33;5.07;;;8.80;99.90;;;;;;5070626;28;20443;-77
2022/01/06 11:16:24;;;;;;;21.47;5.60;;;8.80;99.90;;;;;;5070798;28;20529;-78
2022/01/06 11:18:53;;;;;;;17.07;5.10;;;8.80;99.90;;;;;;5071219;28;20447;-77
2022/01/06 11:21:24;;;;;;;8.60;4.50;;;8.60;99.90;;;;;;5070952;28;20931;-79
2022/01/06 11:24:02;;;;;;;19.10;5.43;;;8.60;99.90;;;;;;5071156;28;20451;-78
2022/01/06 11:26:28;;;;;;;17.43;5.00;;;8.70;99.90;;;;;;5070539;28;20837;-78
2022/01/06 11:28:58;;;;;;;18.43;6.03;;;8.70;99.90;;;;;;5070810;28;20456;-78
2022/01/06 11:31:27;;;;;;;13.93;4.80;;;9.00;99.90;;;;;;5070547;28;20478;-77
2022/01/06 11:33:56;;;;;;;12.73;4.90;;;9.30;99.90;;;;;;5071069;28;20452;-76
2022/01/06 11:36:30;;;;;;;13.27;5.00;;;9.50;99.90;;;;;;5070435;28;20475;-76
2022/01/06 11:38:58;;;;;;;13.73;4.20;;;9.70;99.90;;;;;;5070961;28;20523;-76
2022/01/06 11:41:26;;;;;;;11.37;4.80;;;9.20;99.90;;;;;;5070762;28;20444;-76
2022/01/06 11:43:57;;;;;;;15.53;4.70;;;9.20;99.90;;;;;;5071315;28;20452;-78
2022/01/06 11:46:24;;;;;;;18.23;5.87;;;9.40;99.90;;;;;;5070354;28;20472;-77
2022/01/06 11:48:54;;;;;;;15.10;5.80;;;9.70;99.90;;;;;;5070685;28;20498;-78
2022/01/06 11:51:27;;;;;;;16.77;4.97;;;10.10;99.90;;;;;;5070494;28;20491;-78
2022/01/06 11:53:55;;;;;;;11.40;4.60;;;10.30;99.90;;;;;;5070677;28;20447;-77
2022/01/06 11:56:23;;;;;;;15.50;4.87;;;10.20;99.90;;;;;;5069868;28;20855;-78
2022/01/06 11:59:04;;;;;;;17.93;5.10;;;10.50;99.90;;;;;;5070528;28;20495;-77
2022/01/06 12:01:46;;;;;;;27.10;5.50;;;10.90;99.90;;;;;;5070108;28;20455;-78
2022/01/06 12:04:16;;;;;;;13.23;4.50;;;11.30;99.90;;;;;;5070495;28;20497;-77
2022/01/06 12:06:44;;;;;;;11.67;4.70;;;11.30;99.90;;;;;;5070065;28;20446;-78
2022/01/06 12:09:18;;;;;;;15.77;4.77;;;11.00;99.90;;;;;;5070461;28;20448;-78
2022/01/06 12:11:44;;;;;;;17.23;4.40;;;10.70;99.90;;;;;;5069850;28;20528;-78
2022/01/06 12:14:12;;;;;;;17.80;4.50;;;10.50;99.90;;;;;;5070738;28;20477;-77
2022/01/06 12:16:41;;;;;;;9.87;4.10;;;10.10;99.90;;;;;;5070226;28;20574;-77
2022/01/06 12:19:15;;;;;;;14.33;4.80;;;9.60;99.90;;;;;;5070539;28;20906;-78
2022/01/06 12:21:42;;;;;;;10.67;4.70;;;9.50;99.90;;;;;;5070380;28;20531;-77
2022/01/06 12:24:11;;;;;;;13.47;4.97;;;9.20;99.90;;;;;;5072218;28;20459;-78
2022/01/06 12:26:40;;;;;;;13.27;4.70;;;9.00;99.90;;;;;;5074539;28;20861;-77
2022/01/06 12:29:14;;;;;;;14.53;4.73;;;8.60;99.90;;;;;;5074399;28;20493;-78
2022/01/06 12:31:42;;;;;;;13.97;5.03;;;8.30;99.90;;;;;;5074222;28;20529;-77
2022/01/06 12:34:11;;;;;;;14.87;5.30;;;8.50;99.90;;;;;;5074188;28;20443;-78
2022/01/06 12:36:43;;;;;;;10.63;4.67;;;8.70;99.90;;;;;;5074133;28;20463;-78
2022/01/06 12:39:13;;;;;;;12.37;4.90;;;9.10;99.90;;;;;;5074220;28;20487;-78
2022/01/06 12:41:40;;;;;;;14.63;4.83;;;9.10;99.90;;;;;;5074339;28;20561;-79
2022/01/06 12:44:07;;;;;;;13.20;4.27;;;9.20;99.90;;;;;;5074626;28;20463;-76
2022/01/06 12:46:37;;;;;;;16.50;4.83;;;9.30;99.90;;;;;;5073691;28;20447;-77
2022/01/06 12:49:08;;;;;;;15.03;4.87;;;9.40;99.90;;;;;;5074059;28;20470;-76
2022/01/06 12:51:37;;;;;;;8.73;4.80;;;9.40;99.90;;;;;;5073697;28;20566;-76
2022/01/06 12:54:08;;;;;;;14.20;6.10;;;9.20;99.90;;;;;;5073946;28;20501;-76